Time;durP1;ratioP1;P1;durP2;ratioP2;P2;SDS_P1;SDS_P2;PMS_P1;PMS_P2;Temp;Humidity;BMP_temperature;BMP_pressure;BME280_temperature;BME280_humidity;BME280_pressure;Samples;Min_cycle;Max_cycle;Signal;HPM_P1;HPM_P2
2022/03/24 00:00:50;;;;;;;6.95;6.25;;;18.40;37.30;;;;;;6161467;23;20199;-71
2022/03/24 00:03:17;;;;;;;6.85;6.25;;;18.40;37.20;;;;;;6160897;23;20630;-71
2022/03/24 00:05:44;;;;;;;7.55;6.80;;;18.40;37.20;;;;;;6161040;23;20204;-71
2022/03/24 00:08:12;;;;;;;7.70;7.00;;;18.30;37.10;;;;;;6161227;23;20176;-71
2022/03/24 00:10:40;;;;;;;7.15;6.45;;;18.30;37.80;;;;;;6187724;23;20227;-71
2022/03/24 00:13:07;;;;;;;6.88;6.18;;;18.30;37.20;;;;;;6161314;23;20176;-71
2022/03/24 00:15:34;;;;;;;7.15;6.55;;;18.30;37.20;;;;;;6161011;23;20627;-71
2022/03/24 00:18:01;;;;;;;6.95;6.35;;;18.30;37.30;;;;;;6161074;23;20204;-71
2022/03/24 00:20:29;;;;;;;7.32;6.68;;;18.20;37.20;;;;;;6161239;23;20212;-71
2022/03/24 00:22:56;;;;;;;7.13;6.53;;;18.30;37.30;;;;;;6187724;23;20243;-71
2022/03/24 00:25:24;;;;;;;8.15;6.25;;;18.20;37.40;;;;;;6161438;23;20662;-71
2022/03/24 00:27:52;;;;;;;7.75;6.95;;;18.20;37.40;;;;;;6161031;23;20176;-72
2022/03/24 00:30:19;;;;;;;7.00;6.43;;;18.20;37.20;;;;;;6161152;23;20176;-71
2022/03/24 00:32:46;;;;;;;7.57;6.78;;;18.10;37.30;;;;;;6160946;23;20622;-71
2022/03/24 00:35:14;;;;;;;7.68;6.90;;;18.20;37.40;;;;;;6160662;23;20215;-71
2022/03/24 00:37:41;;;;;;;7.90;7.20;;;18.20;37.40;;;;;;6160876;23;20176;-71
2022/03/24 00:40:16;;;;;;;7.32;6.68;;;18.10;37.40;;;;;;6160692;23;20200;-71
2022/03/24 00:42:45;;;;;;;7.57;6.88;;;18.10;37.40;;;;;;6161083;23;20168;-71
2022/03/24 00:45:14;;;;;;;7.57;6.88;;;18.10;37.60;;;;;;6160879;23;20215;-71
2022/03/24 00:47:41;;;;;;;7.38;6.68;;;18.10;37.50;;;;;;6160741;23;20176;-71
2022/03/24 00:50:09;;;;;;;7.28;6.63;;;18.00;37.40;;;;;;6160811;23;20175;-71
2022/03/24 00:52:41;;;;;;;7.53;6.85;;;18.10;37.70;;;;;;6160705;23;20466;-71
2022/03/24 00:55:10;;;;;;;8.13;7.28;;;18.00;37.40;;;;;;6160974;23;20202;-71
2022/03/24 00:57:37;;;;;;;7.68;7.05;;;18.00;37.50;;;;;;6160948;23;20223;-71
2022/03/24 01:00:05;;;;;;;7.40;6.70;;;18.00;37.40;;;;;;6161022;23;20680;-72
2022/03/24 01:02:35;;;;;;;7.80;7.07;;;17.90;37.30;;;;;;6161022;23;20168;-71
2022/03/24 01:05:03;;;;;;;7.65;6.95;;;18.00;38.10;;;;;;6161065;23;20188;-71
2022/03/24 01:07:30;;;;;;;8.02;7.32;;;18.00;37.40;;;;;;6161050;23;20176;-71
2022/03/24 01:09:58;;;;;;;7.45;6.75;;;17.90;37.30;;;;;;6193799;23;20534;-71
2022/03/24 01:12:25;;;;;;;7.65;6.95;;;17.90;37.40;;;;;;6160921;23;20172;-71
2022/03/24 01:14:52;;;;;;;7.25;6.65;;;17.90;37.50;;;;;;6160603;23;20172;-71
2022/03/24 01:17:19;;;;;;;7.82;7.07;;;17.90;37.50;;;;;;6160939;23;20180;-71
2022/03/24 01:19:47;;;;;;;7.40;6.80;;;17.90;37.60;;;;;;6160918;23;20243;-71
2022/03/24 01:22:14;;;;;;;7.20;6.60;;;17.90;37.60;;;;;;6160623;23;20172;-71
2022/03/24 01:24:42;;;;;;;8.18;7.38;;;17.80;37.50;;;;;;6160858;23;20180;-71
2022/03/24 01:27:11;;;;;;;7.57;6.80;;;17.80;37.50;;;;;;6160872;23;20194;-71
2022/03/24 01:29:38;;;;;;;6.97;6.35;;;17.80;37.70;;;;;;6160474;23;20195;-71
2022/03/24 01:32:07;;;;;;;8.20;7.40;;;17.80;37.60;;;;;;6160412;23;20179;-71
2022/03/24 01:34:34;;;;;;;7.00;6.38;;;17.80;37.60;;;;;;6160374;23;20271;-71
2022/03/24 01:37:05;;;;;;;7.05;6.43;;;17.80;37.60;;;;;;6161271;23;20174;-71
2022/03/24 01:39:32;;;;;;;7.40;6.80;;;17.80;37.70;;;;;;6160141;23;20199;-71
2022/03/24 01:42:00;;;;;;;7.13;6.53;;;17.70;37.60;;;;;;6160546;23;20176;-71
2022/03/24 01:44:28;;;;;;;6.88;6.20;;;17.70;37.60;;;;;;6160469;23;20257;-71
2022/03/24 01:46:59;;;;;;;7.40;6.80;;;17.70;37.70;;;;;;6160827;23;20198;-71
2022/03/24 01:49:26;;;;;;;7.95;7.25;;;17.70;37.70;;;;;;6160502;23;20164;-71
2022/03/24 01:51:53;;;;;;;8.00;7.18;;;17.70;37.60;;;;;;6160410;23;20226;-72
2022/03/24 01:54:22;;;;;;;7.50;6.80;;;17.70;37.70;;;;;;6160335;23;20690;-72
2022/03/24 01:56:52;;;;;;;7.30;6.70;;;17.60;37.60;;;;;;6160568;23;20544;-72
2022/03/24 01:59:20;;;;;;;7.50;6.90;;;17.60;37.60;;;;;;6160132;23;20204;-72
2022/03/24 02:01:48;;;;;;;7.22;6.63;;;17.60;37.60;;;;;;6161489;23;20595;-72
2022/03/24 02:04:16;;;;;;;7.63;7.03;;;17.60;37.60;;;;;;6161205;23;20641;-72
2022/03/24 02:06:43;;;;;;;8.02;7.32;;;17.60;37.60;;;;;;6160125;23;20199;-72
2022/03/24 02:09:11;;;;;;;7.50;6.72;;;17.60;37.60;;;;;;6160097;23;20246;-72
2022/03/24 02:11:40;;;;;;;6.90;6.35;;;17.50;37.70;;;;;;6159891;23;20203;-73
2022/03/24 02:14:07;;;;;;;7.22;6.53;;;17.60;37.70;;;;;;6159931;23;20172;-72
2022/03/24 02:16:35;;;;;;;7.30;6.60;;;17.50;37.70;;;;;;6159502;23;20201;-72
2022/03/24 02:19:10;;;;;;;7.47;6.78;;;17.50;37.70;;;;;;6159730;23;20172;-72
2022/03/24 02:21:38;;;;;;;7.07;6.22;;;17.50;37.70;;;;;;6159787;23;20172;-72
2022/03/24 02:24:08;;;;;;;7.45;6.75;;;17.50;37.70;;;;;;6185976;23;20172;-72
2022/03/24 02:26:36;;;;;;;8.38;6.88;;;17.50;37.80;;;;;;6159197;23;20192;-72
2022/03/24 02:29:06;;;;;;;7.43;6.72;;;17.50;37.80;;;;;;6159847;23;20176;-71
2022/03/24 02:31:34;;;;;;;7.35;6.65;;;17.50;37.80;;;;;;6159945;23;20168;-70
2022/03/24 02:36:44;;;;;;;7.22;6.55;;;17.40;37.80;;;;;;6158370;23;20191;-70
2022/03/24 02:39:13;;;;;;;7.95;7.25;;;17.40;37.70;;;;;;6159894;23;20188;-70
2022/03/24 02:41:47;;;;;;;8.13;6.90;;;17.40;37.70;;;;;;6159806;23;20214;-69
2022/03/24 02:44:17;;;;;;;7.90;7.20;;;17.30;37.60;;;;;;6185959;23;20168;-70
2022/03/24 02:46:44;;;;;;;7.97;7.20;;;17.40;37.70;;;;;;6186052;23;20180;-69
2022/03/24 02:49:11;;;;;;;8.00;7.20;;;17.40;37.80;;;;;;6159738;23;20226;-70
2022/03/24 02:51:38;;;;;;;7.72;7.03;;;17.40;37.70;;;;;;6160110;23;20172;-69
2022/03/24 02:54:05;;;;;;;7.43;6.78;;;17.40;37.80;;;;;;6186348;23;20168;-69
2022/03/24 02:56:34;;;;;;;7.68;6.90;;;17.40;37.80;;;;;;6159652;23;20196;-69
2022/03/24 02:59:01;;;;;;;8.10;7.40;;;17.30;37.80;;;;;;6185792;23;20160;-70
2022/03/24 03:01:28;;;;;;;7.75;7.03;;;17.30;37.60;;;;;;6159702;23;20176;-69
2022/03/24 03:03:55;;;;;;;8.05;7.35;;;17.30;37.70;;;;;;6159701;23;20252;-70
2022/03/24 03:06:23;;;;;;;7.53;6.82;;;17.30;37.70;;;;;;6159764;23;20234;-70
2022/03/24 03:08:50;;;;;;;7.80;7.03;;;17.20;37.70;;;;;;6159528;23;20202;-70
2022/03/24 03:11:17;;;;;;;7.47;6.78;;;17.30;37.70;;;;;;6159516;23;20223;-70
2022/03/24 03:13:45;;;;;;;7.68;6.97;;;17.20;37.60;;;;;;6159667;23;20180;-70
2022/03/24 03:16:13;;;;;;;7.80;7.10;;;17.30;37.80;;;;;;6159279;23;20206;-70
2022/03/24 03:18:41;;;;;;;7.72;7.10;;;17.20;37.70;;;;;;6159437;23;20165;-70
2022/03/24 03:21:09;;;;;;;7.88;7.07;;;17.20;37.80;;;;;;6159456;23;20199;-70
2022/03/24 03:23:38;;;;;;;7.95;7.20;;;17.20;37.70;;;;;;6159472;23;20176;-70
2022/03/24 03:26:05;;;;;;;7.95;7.25;;;17.20;37.80;;;;;;6159141;23;20199;-70
2022/03/24 03:28:33;;;;;;;8.25;7.45;;;17.10;37.60;;;;;;6159537;23;20173;-70
2022/03/24 03:31:01;;;;;;;7.80;7.10;;;17.20;37.60;;;;;;6185858;23;20263;-70
2022/03/24 03:33:28;;;;;;;7.47;6.88;;;17.10;37.70;;;;;;6185984;23;20164;-70
2022/03/24 03:35:55;;;;;;;8.00;7.30;;;17.10;37.60;;;;;;6185989;23;20184;-70
2022/03/24 03:38:24;;;;;;;7.97;7.18;;;17.10;37.80;;;;;;6160364;23;20183;-70
2022/03/24 03:40:52;;;;;;;7.38;6.68;;;17.10;37.80;;;;;;6161588;23;20199;-70
2022/03/24 03:43:19;;;;;;;7.82;7.13;;;17.10;37.80;;;;;;6161629;23;20176;-71
2022/03/24 03:45:46;;;;;;;8.25;7.55;;;17.10;37.80;;;;;;6161721;23;20192;-72
2022/03/24 03:48:15;;;;;;;7.75;7.05;;;17.10;37.80;;;;;;6161544;23;20172;-72
2022/03/24 03:50:42;;;;;;;7.38;6.68;;;17.00;37.70;;;;;;6188015;23;20615;-72
2022/03/24 03:53:09;;;;;;;7.97;7.18;;;17.00;37.80;;;;;;6162485;23;20177;-72
2022/03/24 03:55:36;;;;;;;7.57;6.85;;;17.00;37.80;;;;;;6168664;23;20203;-71
2022/03/24 03:58:03;;;;;;;8.10;7.40;;;17.00;37.70;;;;;;6191528;23;20175;-71
2022/03/24 04:03:12;;;;;;;7.70;6.90;;;17.00;37.80;;;;;;6167215;23;20171;-71
2022/03/24 04:05:41;;;;;;;7.45;6.65;;;17.00;37.80;;;;;;6178640;23;20195;-71
2022/03/24 04:08:09;;;;;;;8.32;7.53;;;17.00;37.80;;;;;;6161402;23;20176;-72
2022/03/24 04:10:36;;;;;;;7.78;7.07;;;17.00;37.80;;;;;;6161311;23;20177;-72
2022/03/24 04:13:03;;;;;;;8.45;7.65;;;17.00;37.90;;;;;;6161521;23;20172;-71
2022/03/24 04:15:31;;;;;;;8.40;7.60;;;16.90;37.90;;;;;;6186180;23;20189;-72
2022/03/24 04:17:58;;;;;;;7.93;7.22;;;17.00;37.90;;;;;;6185977;23;20206;-72
2022/03/24 04:20:26;;;;;;;8.15;7.45;;;16.90;37.70;;;;;;6187546;23;20184;-72
2022/03/24 04:22:55;;;;;;;7.80;7.10;;;16.90;37.80;;;;;;6161395;23;20200;-71
2022/03/24 04:25:22;;;;;;;8.95;7.45;;;16.90;37.90;;;;;;6187377;23;20203;-72
2022/03/24 04:27:50;;;;;;;7.90;7.22;;;16.90;37.80;;;;;;6161798;23;20172;-72
2022/03/24 04:30:17;;;;;;;8.23;7.43;;;16.90;37.80;;;;;;6161281;23;20179;-71
2022/03/24 04:32:45;;;;;;;8.00;7.20;;;16.90;37.80;;;;;;6161485;23;20176;-72
2022/03/24 04:35:13;;;;;;;7.90;7.20;;;16.90;37.80;;;;;;6188301;23;20184;-72
2022/03/24 04:37:40;;;;;;;8.52;7.82;;;16.90;37.80;;;;;;6187309;23;20701;-72
2022/03/24 04:40:10;;;;;;;8.18;7.40;;;16.90;37.90;;;;;;6190556;23;20184;-72
2022/03/24 04:42:37;;;;;;;8.30;7.60;;;16.80;37.80;;;;;;6162519;23;20184;-72
2022/03/24 04:45:06;;;;;;;8.00;7.30;;;16.90;37.80;;;;;;6187269;23;20200;-72
2022/03/24 04:47:34;;;;;;;7.65;6.95;;;16.90;37.80;;;;;;6187020;23;20279;-72
2022/03/24 04:50:02;;;;;;;8.40;7.70;;;16.90;38.00;;;;;;6160891;23;20207;-72
2022/03/24 04:52:28;;;;;;;8.18;7.50;;;16.90;37.80;;;;;;6161348;23;20271;-72
2022/03/24 04:54:56;;;;;;;8.40;7.60;;;16.80;37.80;;;;;;6187493;23;20164;-72
2022/03/24 04:57:25;;;;;;;7.72;6.97;;;16.90;37.80;;;;;;6161005;23;20661;-72
2022/03/24 04:59:52;;;;;;;8.32;7.57;;;16.80;37.80;;;;;;6160844;23;20188;-72
2022/03/24 05:02:19;;;;;;;8.00;7.30;;;16.90;37.80;;;;;;6185673;23;20246;-72
2022/03/24 05:04:46;;;;;;;8.05;7.35;;;16.80;37.80;;;;;;6160661;23;20176;-72
2022/03/24 05:07:13;;;;;;;8.38;7.57;;;16.80;37.80;;;;;;6160743;23;20183;-72
2022/03/24 05:09:41;;;;;;;7.75;7.05;;;16.90;37.90;;;;;;6185583;23;20176;-71
2022/03/24 05:12:09;;;;;;;7.90;7.20;;;16.80;37.80;;;;;;6160860;23;20175;-72
2022/03/24 05:14:37;;;;;;;7.85;7.05;;;16.90;37.80;;;;;;6160634;23;20172;-71
2022/03/24 05:17:06;;;;;;;8.13;7.40;;;16.90;37.90;;;;;;6161058;23;20172;-72
2022/03/24 05:19:34;;;;;;;7.80;7.10;;;16.90;37.80;;;;;;6186503;23;20534;-72
2022/03/24 05:22:01;;;;;;;7.65;6.95;;;16.90;37.70;;;;;;6185160;23;20192;-72
2022/03/24 05:24:28;;;;;;;8.02;7.30;;;16.90;37.60;;;;;;6185729;23;20168;-72
2022/03/24 05:26:55;;;;;;;7.43;6.82;;;16.90;37.60;;;;;;6185148;23;20192;-71
2022/03/24 05:29:23;;;;;;;7.70;6.90;;;16.90;37.70;;;;;;6160387;23;20176;-72
2022/03/24 05:31:51;;;;;;;8.13;7.30;;;16.90;37.60;;;;;;6185099;23;20176;-71
2022/03/24 05:34:19;;;;;;;7.32;6.72;;;17.00;37.60;;;;;;6160410;23;20515;-72
2022/03/24 05:36:46;;;;;;;7.50;6.80;;;16.90;38.20;;;;;;6186377;23;20188;-72
2022/03/24 05:39:13;;;;;;;7.75;7.05;;;17.00;38.20;;;;;;6160417;23;20168;-72
2022/03/24 05:41:41;;;;;;;7.95;7.25;;;17.00;38.20;;;;;;6185168;23;20212;-69
2022/03/24 05:44:08;;;;;;;8.43;7.63;;;17.00;37.40;;;;;;6216508;23;20164;-69
2022/03/24 05:46:37;;;;;;;7.60;6.90;;;17.10;37.30;;;;;;6216789;23;20168;-70
2022/03/24 05:49:06;;;;;;;8.10;7.30;;;17.00;37.30;;;;;;6190093;23;20171;-70
2022/03/24 05:51:52;;;;;;;8.32;7.53;;;17.10;37.50;;;;;;6194872;23;20677;-69
2022/03/24 05:54:19;;;;;;;8.07;7.38;;;17.10;37.50;;;;;;6160909;23;20180;-70
2022/03/24 05:56:46;;;;;;;8.55;7.75;;;17.10;37.50;;;;;;6186838;23;20172;-69
2022/03/24 05:59:15;;;;;;;8.75;7.80;;;17.20;37.50;;;;;;6185538;23;20206;-69
2022/03/24 06:01:42;;;;;;;8.23;7.43;;;17.20;37.60;;;;;;6159549;23;20196;-69
2022/03/24 06:04:13;;;;;;;8.45;7.65;;;17.20;37.50;;;;;;6186212;23;20184;-70
2022/03/24 06:06:40;;;;;;;8.43;7.55;;;17.20;37.50;;;;;;6160401;23;20170;-68
2022/03/24 06:09:08;;;;;;;8.48;7.68;;;17.30;37.60;;;;;;6159883;23;20177;-69
2022/03/24 06:11:36;;;;;;;8.20;7.30;;;17.30;37.60;;;;;;6186267;23;20187;-70
2022/03/24 06:14:03;;;;;;;9.05;8.20;;;17.30;37.50;;;;;;6159976;23;20176;-69
2022/03/24 06:16:31;;;;;;;7.88;7.18;;;17.40;37.50;;;;;;6184745;23;20172;-68
2022/03/24 06:18:59;;;;;;;8.07;7.32;;;17.40;37.50;;;;;;6161376;23;20231;-71
2022/03/24 06:21:28;;;;;;;8.50;7.70;;;17.40;37.50;;;;;;6159542;23;20254;-69
2022/03/24 06:23:55;;;;;;;7.95;7.20;;;17.40;37.50;;;;;;6184637;23;20176;-71
2022/03/24 06:26:23;;;;;;;7.63;6.93;;;17.50;37.70;;;;;;6185180;23;20199;-70
2022/03/24 06:28:52;;;;;;;8.43;7.63;;;17.50;37.60;;;;;;6184774;23;20195;-71
2022/03/24 06:31:20;;;;;;;8.32;7.40;;;17.50;37.50;;;;;;6159878;23;20227;-73
2022/03/24 06:33:47;;;;;;;8.02;7.22;;;17.60;37.60;;;;;;6184726;23;20259;-71
2022/03/24 06:36:15;;;;;;;8.13;7.40;;;17.50;37.30;;;;;;6159900;23;20172;-71
2022/03/24 06:38:44;;;;;;;8.10;7.40;;;17.60;37.50;;;;;;6185543;23;20203;-71
2022/03/24 06:41:14;;;;;;;8.05;7.25;;;17.60;37.10;;;;;;6162008;23;20204;-71
2022/03/24 06:43:42;;;;;;;8.57;7.88;;;17.70;37.10;;;;;;6186091;23;20222;-73
2022/03/24 06:46:10;;;;;;;8.18;7.47;;;17.70;36.80;;;;;;6187823;23;20171;-71
2022/03/24 06:48:37;;;;;;;8.25;7.50;;;17.80;36.30;;;;;;6161544;23;20176;-70
2022/03/24 06:51:04;;;;;;;9.98;7.68;;;17.90;36.00;;;;;;6184900;23;20188;-71
2022/03/24 06:53:32;;;;;;;8.48;7.68;;;18.10;35.90;;;;;;6184953;23;20176;-71
2022/03/24 06:56:01;;;;;;;9.27;8.35;;;18.20;35.60;;;;;;6161635;23;20172;-71
2022/03/24 06:58:28;;;;;;;8.80;8.00;;;18.30;35.30;;;;;;6160731;23;20183;-71
2022/03/24 07:00:55;;;;;;;9.68;8.05;;;18.50;35.20;;;;;;6186589;23;20212;-71
2022/03/24 07:03:23;;;;;;;11.15;7.78;;;18.60;34.90;;;;;;6160868;23;20708;-71
2022/03/24 07:05:50;;;;;;;10.63;7.90;;;18.70;34.80;;;;;;6160286;23;20264;-71
2022/03/24 07:08:17;;;;;;;9.90;7.85;;;18.80;34.90;;;;;;6160290;23;20172;-71
2022/03/24 07:10:44;;;;;;;8.75;7.30;;;19.00;34.50;;;;;;6186302;23;20180;-71
2022/03/24 07:13:12;;;;;;;8.80;7.95;;;19.20;34.60;;;;;;6185378;23;20223;-71
2022/03/24 07:15:39;;;;;;;10.35;8.43;;;19.40;34.30;;;;;;6161894;23;20176;-70
2022/03/24 07:18:06;;;;;;;9.52;8.52;;;19.60;33.70;;;;;;6186702;23;20710;-71
2022/03/24 07:20:35;;;;;;;9.90;9.00;;;19.80;33.70;;;;;;6161728;23;20260;-69
2022/03/24 07:23:03;;;;;;;10.32;9.27;;;20.00;32.70;;;;;;6186782;23;20183;-71
2022/03/24 07:25:31;;;;;;;9.60;8.65;;;20.20;32.70;;;;;;6161728;23;20186;-71
2022/03/24 07:27:58;;;;;;;12.02;9.88;;;20.40;32.50;;;;;;6188187;23;20223;-71
2022/03/24 07:30:27;;;;;;;10.18;9.05;;;20.50;32.30;;;;;;6161761;23;20250;-69
2022/03/24 07:32:55;;;;;;;9.55;8.65;;;20.60;32.60;;;;;;6162305;23;20191;-72
2022/03/24 07:35:24;;;;;;;11.68;10.43;;;20.80;31.90;;;;;;6168018;23;20230;-70
2022/03/24 07:37:51;;;;;;;10.80;9.70;;;20.90;31.80;;;;;;6165237;23;20180;-70
2022/03/24 07:40:21;;;;;;;11.32;9.57;;;21.00;31.50;;;;;;6189767;23;20172;-70
2022/03/24 07:42:49;;;;;;;10.18;9.05;;;21.10;31.20;;;;;;6188061;23;20250;-70
2022/03/24 07:45:16;;;;;;;11.40;10.27;;;21.20;31.20;;;;;;6189067;23;20164;-70
2022/03/24 07:48:10;;;;;;;9.77;8.68;;;21.30;31.20;;;;;;6162879;23;20172;-69
2022/03/24 07:50:37;;;;;;;11.88;10.68;;;21.40;31.00;;;;;;6163454;23;20196;-70
2022/03/24 07:53:21;;;;;;;11.02;9.88;;;21.50;30.80;;;;;;6188090;23;20204;-70
2022/03/24 07:55:49;;;;;;;9.75;8.75;;;21.60;30.70;;;;;;6163046;23;20259;-70
2022/03/24 07:58:17;;;;;;;10.75;9.68;;;21.70;30.70;;;;;;6161829;23;20183;-69
2022/03/24 08:00:45;;;;;;;10.38;9.32;;;21.80;30.60;;;;;;6161567;23;20203;-70
2022/03/24 08:03:14;;;;;;;10.68;9.68;;;21.90;30.50;;;;;;6161767;23;20187;-70
2022/03/24 08:05:41;;;;;;;11.30;10.15;;;22.00;30.40;;;;;;6161847;23;20172;-70
2022/03/24 08:08:09;;;;;;;10.40;9.30;;;22.10;30.40;;;;;;6161672;23;20522;-70
2022/03/24 08:10:36;;;;;;;10.07;9.13;;;22.10;30.20;;;;;;6161597;23;20664;-70
2022/03/24 08:13:04;;;;;;;11.48;10.27;;;22.20;30.10;;;;;;6186176;23;20207;-70
2022/03/24 08:15:32;;;;;;;11.70;10.50;;;22.30;30.00;;;;;;6161364;23;20180;-70
2022/03/24 08:17:59;;;;;;;11.50;10.25;;;22.40;30.00;;;;;;6187897;23;20164;-70
2022/03/24 08:20:28;;;;;;;10.50;9.18;;;22.50;29.90;;;;;;6187574;23;20187;-70
2022/03/24 08:22:56;;;;;;;12.52;8.38;;;22.50;30.00;;;;;;6196242;23;20176;-69
2022/03/24 08:25:24;;;;;;;11.10;9.32;;;22.60;30.00;;;;;;6168272;23;20174;-69
2022/03/24 08:27:51;;;;;;;10.85;9.30;;;22.60;29.90;;;;;;6161121;23;20230;-70
2022/03/24 08:30:18;;;;;;;11.68;9.07;;;22.70;29.80;;;;;;6160774;23;20567;-70
2022/03/24 08:32:46;;;;;;;10.70;8.75;;;22.80;29.90;;;;;;6161016;23;20567;-70
2022/03/24 08:35:12;;;;;;;10.77;9.15;;;22.80;29.90;;;;;;6187051;23;20171;-70
2022/03/24 08:37:41;;;;;;;11.13;8.82;;;22.90;29.90;;;;;;6185478;23;20213;-70
2022/03/24 08:40:10;;;;;;;9.75;8.75;;;23.00;29.80;;;;;;6185255;23;20172;-70
2022/03/24 08:42:37;;;;;;;8.85;7.63;;;23.00;29.80;;;;;;6160587;23;20188;-70
2022/03/24 08:45:05;;;;;;;9.65;8.40;;;23.10;29.90;;;;;;6160617;23;20516;-70
2022/03/24 08:47:33;;;;;;;8.88;7.78;;;23.10;30.00;;;;;;6160478;23;20176;-70
2022/03/24 08:50:00;;;;;;;11.32;8.68;;;23.20;31.40;;;;;;6185240;23;20200;-69
2022/03/24 08:52:28;;;;;;;9.95;8.90;;;23.20;32.70;;;;;;6186765;23;20206;-70
2022/03/24 08:54:57;;;;;;;8.82;8.02;;;23.30;32.70;;;;;;6185265;23;20247;-70
2022/03/24 08:57:26;;;;;;;8.50;7.47;;;23.30;32.90;;;;;;6160392;23;20191;-69
2022/03/24 08:59:54;;;;;;;8.32;7.38;;;23.40;32.60;;;;;;6160487;23;20262;-69
2022/03/24 09:02:21;;;;;;;9.55;7.38;;;23.40;31.70;;;;;;6184994;23;20196;-69
2022/03/24 09:04:48;;;;;;;8.45;7.53;;;23.50;31.40;;;;;;6185222;23;20172;-69
2022/03/24 09:07:16;;;;;;;8.30;7.45;;;23.50;31.30;;;;;;6185444;23;20269;-70
2022/03/24 09:09:43;;;;;;;9.68;7.45;;;23.60;31.20;;;;;;6160326;23;20619;-70
2022/03/24 09:12:12;;;;;;;7.18;6.50;;;23.60;31.00;;;;;;6185383;23;20187;-69
2022/03/24 09:14:40;;;;;;;7.97;7.18;;;23.70;31.00;;;;;;6185641;23;20529;-69
2022/03/24 09:17:08;;;;;;;8.57;7.38;;;23.70;30.90;;;;;;6160746;23;20218;-70
2022/03/24 09:19:35;;;;;;;7.40;6.60;;;23.80;30.90;;;;;;6160542;23;20172;-70
2022/03/24 09:22:03;;;;;;;7.07;6.43;;;23.80;30.70;;;;;;6160113;23;20200;-70
2022/03/24 09:24:31;;;;;;;7.60;6.80;;;23.80;30.40;;;;;;6186409;23;20168;-70
2022/03/24 09:26:58;;;;;;;8.10;6.70;;;23.90;30.40;;;;;;6160173;23;20295;-70
2022/03/24 09:29:26;;;;;;;6.85;6.25;;;23.90;30.30;;;;;;6160593;23;20618;-69
2022/03/24 09:31:53;;;;;;;7.68;6.70;;;23.90;30.30;;;;;;6185099;23;20196;-70
2022/03/24 09:34:20;;;;;;;7.57;6.88;;;24.00;30.30;;;;;;6185009;23;20179;-70
2022/03/24 09:36:47;;;;;;;8.00;6.57;;;24.00;30.10;;;;;;6185339;23;20556;-69
2022/03/24 09:39:15;;;;;;;7.50;6.80;;;24.00;30.10;;;;;;6185427;23;20641;-69
2022/03/24 09:41:43;;;;;;;8.43;6.43;;;24.00;30.70;;;;;;6185235;23;20251;-70
2022/03/24 09:44:10;;;;;;;7.07;6.38;;;24.00;30.00;;;;;;6184872;23;20673;-70
2022/03/24 09:46:39;;;;;;;6.65;6.05;;;24.00;29.90;;;;;;6184853;23;20244;-70
2022/03/24 09:49:07;;;;;;;7.13;5.70;;;24.10;30.00;;;;;;6184788;23;20179;-70
2022/03/24 09:51:34;;;;;;;7.07;6.38;;;24.10;30.00;;;;;;6160004;23;20270;-70
2022/03/24 09:54:01;;;;;;;7.53;6.80;;;24.10;29.90;;;;;;6160088;23;20559;-70
2022/03/24 09:56:29;;;;;;;6.75;6.15;;;24.10;29.80;;;;;;6184929;23;20172;-70
2022/03/24 09:58:56;;;;;;;6.40;5.80;;;24.10;29.80;;;;;;6159950;23;20207;-70
2022/03/24 10:01:24;;;;;;;6.38;5.78;;;24.10;29.90;;;;;;6160141;23;20247;-70
2022/03/24 10:04:09;;;;;;;6.75;6.15;;;24.10;29.80;;;;;;6185028;23;20173;-69
2022/03/24 10:06:37;;;;;;;6.95;6.25;;;24.10;29.80;;;;;;6185338;23;20626;-69
2022/03/24 10:09:05;;;;;;;6.90;6.30;;;24.10;29.80;;;;;;6160619;23;20227;-69
2022/03/24 10:11:35;;;;;;;6.80;6.10;;;24.10;29.70;;;;;;6186966;23;20195;-69
2022/03/24 10:14:02;;;;;;;6.55;5.95;;;24.10;29.80;;;;;;6159981;23;20179;-68
2022/03/24 10:16:43;;;;;;;6.70;6.10;;;24.10;29.80;;;;;;6185242;23;20180;-70
2022/03/24 10:19:13;;;;;;;6.57;5.97;;;24.10;29.80;;;;;;6160509;23;20199;-70
2022/03/24 10:21:42;;;;;;;6.32;5.72;;;24.10;29.80;;;;;;6184475;23;20200;-70
2022/03/24 10:24:10;;;;;;;6.05;5.50;;;24.10;29.70;;;;;;6187100;23;20160;-70
2022/03/24 10:27:00;;;;;;;6.07;5.57;;;24.00;29.70;;;;;;6160073;23;20259;-70
2022/03/24 10:29:27;;;;;;;6.38;5.80;;;24.00;29.70;;;;;;6160367;23;20171;-70
2022/03/24 10:31:56;;;;;;;6.70;6.00;;;24.00;29.70;;;;;;6185242;23;20602;-70
2022/03/24 10:34:34;;;;;;;6.38;5.75;;;24.00;29.80;;;;;;6159691;23;20176;-70
2022/03/24 10:37:05;;;;;;;6.18;5.57;;;24.00;29.80;;;;;;6185283;23;20173;-70
2022/03/24 10:39:33;;;;;;;6.90;5.78;;;24.00;29.80;;;;;;6186671;23;20191;-70
2022/03/24 10:42:14;;;;;;;5.90;5.30;;;23.90;29.70;;;;;;6184313;23;20211;-70
2022/03/24 10:45:07;;;;;;;6.07;5.47;;;23.90;29.80;;;;;;6159790;23;20179;-70
2022/03/24 10:47:39;;;;;;;5.80;5.30;;;23.90;29.80;;;;;;6159544;23;20177;-70
2022/03/24 10:50:40;;;;;;;6.13;5.53;;;23.90;30.30;;;;;;6184461;23;20183;-70
2022/03/24 10:53:08;;;;;;;5.97;5.47;;;23.80;29.90;;;;;;6161685;23;20475;-70
2022/03/24 10:55:58;;;;;;;5.82;5.32;;;23.80;30.00;;;;;;6160220;23;20175;-70
2022/03/24 10:58:29;;;;;;;5.97;5.47;;;23.80;30.00;;;;;;6161353;23;20168;-69
2022/03/24 11:00:58;;;;;;;5.97;5.47;;;23.70;30.00;;;;;;6161591;23;20646;-70
2022/03/24 11:03:26;;;;;;;6.32;5.72;;;23.70;30.10;;;;;;6159830;23;20188;-69
2022/03/24 11:06:11;;;;;;;5.13;4.68;;;23.70;30.10;;;;;;6184601;23;20171;-68
2022/03/24 11:08:38;;;;;;;6.25;5.65;;;23.70;30.20;;;;;;6184806;23;20611;-72
2022/03/24 11:11:07;;;;;;;6.07;5.47;;;23.60;30.10;;;;;;6159817;23;20195;-70
2022/03/24 11:13:43;;;;;;;6.57;5.88;;;23.60;30.10;;;;;;6159390;23;20534;-69
2022/03/24 11:16:11;;;;;;;5.88;5.28;;;23.60;30.10;;;;;;6184296;23;20178;-69
2022/03/24 11:18:38;;;;;;;5.80;5.30;;;23.60;30.10;;;;;;6159774;23;20203;-70
2022/03/24 11:21:09;;;;;;;5.90;5.30;;;23.60;30.30;;;;;;6159390;23;20215;-69
2022/03/24 11:23:39;;;;;;;6.28;5.63;;;23.50;30.30;;;;;;6159769;23;20203;-70
2022/03/24 11:26:07;;;;;;;5.93;5.43;;;23.50;30.40;;;;;;6186050;23;20172;-69
2022/03/24 11:28:35;;;;;;;5.53;5.03;;;23.50;30.50;;;;;;6185846;23;20168;-69
2022/03/24 11:31:07;;;;;;;5.85;4.97;;;23.50;30.50;;;;;;6184317;23;20203;-69
2022/03/24 11:33:38;;;;;;;5.60;5.10;;;23.50;30.70;;;;;;6185724;23;20164;-69
2022/03/24 11:36:08;;;;;;;5.57;5.07;;;23.50;30.70;;;;;;6159610;23;20242;-69
2022/03/24 11:38:35;;;;;;;5.80;5.30;;;23.50;30.70;;;;;;6159523;23;20557;-69
2022/03/24 11:41:03;;;;;;;6.07;5.38;;;23.40;30.70;;;;;;6159436;23;20586;-70
2022/03/24 11:43:30;;;;;;;5.72;5.25;;;23.40;30.70;;;;;;6159932;23;20188;-69
2022/03/24 11:46:02;;;;;;;5.68;5.05;;;23.40;30.60;;;;;;6160060;23;20172;-70
2022/03/24 11:48:34;;;;;;;5.60;5.10;;;23.40;30.70;;;;;;6184764;23;20164;-69
2022/03/24 11:51:04;;;;;;;5.88;5.38;;;23.50;30.70;;;;;;6160111;23;20239;-69
2022/03/24 11:53:39;;;;;;;5.22;4.75;;;23.40;30.70;;;;;;6184835;23;20168;-69
2022/03/24 11:56:14;;;;;;;5.90;5.40;;;23.50;30.70;;;;;;6186231;23;20217;-69
2022/03/24 11:59:18;;;;;;;6.30;5.40;;;23.50;30.60;;;;;;6184419;23;20168;-70
2022/03/24 12:01:45;;;;;;;6.10;5.57;;;23.50;30.70;;;;;;6176310;23;20210;-66
2022/03/24 12:04:14;;;;;;;5.53;5.03;;;23.50;30.70;;;;;;6167119;23;20200;-66
2022/03/24 12:06:54;;;;;;;5.15;4.75;;;23.50;30.70;;;;;;6161599;23;20176;-66
2022/03/24 12:09:25;;;;;;;5.95;5.45;;;23.50;30.90;;;;;;6185921;23;20176;-67
2022/03/24 12:11:53;;;;;;;5.97;5.45;;;23.40;30.70;;;;;;6160788;23;20168;-67
2022/03/24 12:14:37;;;;;;;6.22;5.25;;;23.40;30.50;;;;;;6160750;23;20203;-67
2022/03/24 12:17:07;;;;;;;5.85;5.30;;;23.40;30.70;;;;;;6185758;23;20654;-67
2022/03/24 12:19:52;;;;;;;5.30;4.80;;;23.40;30.10;;;;;;6186209;23;20698;-67
2022/03/24 12:22:39;;;;;;;5.97;5.47;;;23.40;30.60;;;;;;6160527;23;20192;-67
2022/03/24 12:25:25;;;;;;;5.30;4.80;;;23.40;30.60;;;;;;6187307;23;20199;-67
2022/03/24 12:27:57;;;;;;;5.53;5.00;;;23.40;30.50;;;;;;6160748;23;20197;-67
2022/03/24 12:30:26;;;;;;;5.63;5.15;;;23.40;30.90;;;;;;6185489;23;20176;-67
2022/03/24 12:33:03;;;;;;;5.40;4.90;;;23.40;30.50;;;;;;6160884;23;20262;-67
2022/03/24 12:35:43;;;;;;;5.75;5.25;;;23.40;31.10;;;;;;6185806;23;20168;-67
2022/03/24 12:38:48;;;;;;;5.22;4.80;;;23.40;30.60;;;;;;6185581;23;20250;-67
2022/03/24 12:41:30;;;;;;;4.68;4.28;;;23.40;30.70;;;;;;6187284;23;20180;-67
2022/03/24 12:44:02;;;;;;;5.22;4.82;;;23.40;31.00;;;;;;6161480;23;20195;-67
2022/03/24 12:46:33;;;;;;;4.65;4.25;;;23.40;31.00;;;;;;6187296;23;20487;-67
2022/03/24 12:49:06;;;;;;;4.55;4.10;;;23.40;31.10;;;;;;6160921;23;20169;-67
2022/03/24 12:51:34;;;;;;;5.03;4.57;;;23.40;31.30;;;;;;6187254;23;20153;-67
2022/03/24 12:54:02;;;;;;;5.00;4.60;;;23.30;31.10;;;;;;6161182;23;20192;-67
2022/03/24 12:56:33;;;;;;;5.10;4.70;;;23.40;31.10;;;;;;6187276;23;20204;-67
2022/03/24 12:59:03;;;;;;;4.88;4.47;;;23.30;30.90;;;;;;6161758;23;20264;-67
2022/03/24 13:01:30;;;;;;;4.50;4.20;;;23.40;31.20;;;;;;6186252;23;20245;-67